sensor_id;sensor_type;location;lat;lon;timestamp;P1;durP1;ratioP1;P2;durP2;ratioP2
3189;SDS011;1606;51.946;10.558;2023-07-31T00:01:18;10.37;;;3.37;;
3189;SDS011;1606;51.946;10.558;2023-07-31T00:03:51;10.47;;;3.70;;
3189;SDS011;1606;51.946;10.558;2023-07-31T00:06:20;8.20;;;2.20;;
3189;SDS011;1606;51.946;10.558;2023-07-31T00:08:55;8.93;;;2.90;;
3189;SDS011;1606;51.946;10.558;2023-07-31T00:11:45;8.97;;;2.37;;
3189;SDS011;1606;51.946;10.558;2023-07-31T00:14:21;6.40;;;2.23;;
3189;SDS011;1606;51.946;10.558;2023-07-31T00:17:02;9.90;;;2.60;;
3189;SDS011;1606;51.946;10.558;2023-07-31T00:19:32;8.93;;;2.80;;
3189;SDS011;1606;51.946;10.558;2023-07-31T00:22:10;8.50;;;2.43;;
3189;SDS011;1606;51.946;10.558;2023-07-31T00:24:45;6.97;;;2.43;;
3189;SDS011;1606;51.946;10.558;2023-07-31T00:27:27;8.43;;;2.70;;
3189;SDS011;1606;51.946;10.558;2023-07-31T00:29:58;7.20;;;2.57;;
3189;SDS011;1606;51.946;10.558;2023-07-31T00:32:30;7.30;;;2.20;;
3189;SDS011;1606;51.946;10.558;2023-07-31T00:35:05;7.30;;;1.90;;
3189;SDS011;1606;51.946;10.558;2023-07-31T00:37:34;7.53;;;2.33;;
3189;SDS011;1606;51.946;10.558;2023-07-31T00:40:09;11.33;;;2.57;;
3189;SDS011;1606;51.946;10.558;2023-07-31T00:42:42;7.53;;;2.17;;
3189;SDS011;1606;51.946;10.558;2023-07-31T00:45:16;7.53;;;2.00;;
3189;SDS011;1606;51.946;10.558;2023-07-31T00:47:53;6.87;;;2.17;;
3189;SDS011;1606;51.946;10.558;2023-07-31T00:50:44;6.80;;;1.40;;
3189;SDS011;1606;51.946;10.558;2023-07-31T00:53:40;6.70;;;2.10;;
3189;SDS011;1606;51.946;10.558;2023-07-31T00:56:38;7.60;;;1.80;;
3189;SDS011;1606;51.946;10.558;2023-07-31T00:59:11;7.10;;;1.37;;
3189;SDS011;1606;51.946;10.558;2023-07-31T01:01:48;11.60;;;1.97;;
3189;SDS011;1606;51.946;10.558;2023-07-31T01:04:20;5.77;;;1.20;;
3189;SDS011;1606;51.946;10.558;2023-07-31T01:06:59;6.57;;;1.20;;
3189;SDS011;1606;51.946;10.558;2023-07-31T01:09:37;6.00;;;1.60;;
3189;SDS011;1606;51.946;10.558;2023-07-31T01:12:15;5.53;;;1.10;;
3189;SDS011;1606;51.946;10.558;2023-07-31T01:14:57;5.40;;;1.00;;
3189;SDS011;1606;51.946;10.558;2023-07-31T01:21:03;5.20;;;1.00;;
3189;SDS011;1606;51.946;10.558;2023-07-31T01:24:14;8.90;;;1.10;;
3189;SDS011;1606;51.946;10.558;2023-07-31T01:26:52;6.50;;;1.00;;
3189;SDS011;1606;51.946;10.558;2023-07-31T01:29:29;5.47;;;1.00;;
3189;SDS011;1606;51.946;10.558;2023-07-31T01:32:08;5.40;;;1.00;;
3189;SDS011;1606;51.946;10.558;2023-07-31T01:34:41;5.60;;;1.13;;
3189;SDS011;1606;51.946;10.558;2023-07-31T01:37:15;5.40;;;0.87;;
3189;SDS011;1606;51.946;10.558;2023-07-31T01:39:47;5.50;;;1.07;;
3189;SDS011;1606;51.946;10.558;2023-07-31T01:42:19;5.93;;;1.33;;
3189;SDS011;1606;51.946;10.558;2023-07-31T01:44:50;5.40;;;1.17;;
3189;SDS011;1606;51.946;10.558;2023-07-31T01:47:28;6.10;;;1.45;;
3189;SDS011;1606;51.946;10.558;2023-07-31T01:50:01;6.97;;;1.37;;
3189;SDS011;1606;51.946;10.558;2023-07-31T01:52:33;5.83;;;0.97;;
3189;SDS011;1606;51.946;10.558;2023-07-31T01:55:09;6.47;;;1.10;;
3189;SDS011;1606;51.946;10.558;2023-07-31T01:57:40;5.20;;;0.90;;
3189;SDS011;1606;51.946;10.558;2023-07-31T02:00:11;6.13;;;1.10;;
3189;SDS011;1606;51.946;10.558;2023-07-31T02:02:45;5.67;;;1.07;;
3189;SDS011;1606;51.946;10.558;2023-07-31T02:05:23;6.13;;;1.17;;
3189;SDS011;1606;51.946;10.558;2023-07-31T02:07:56;6.07;;;1.03;;
3189;SDS011;1606;51.946;10.558;2023-07-31T02:10:31;5.83;;;1.20;;
3189;SDS011;1606;51.946;10.558;2023-07-31T02:13:03;5.93;;;0.93;;
3189;SDS011;1606;51.946;10.558;2023-07-31T02:15:44;5.23;;;1.00;;
3189;SDS011;1606;51.946;10.558;2023-07-31T02:18:17;5.50;;;0.90;;
3189;SDS011;1606;51.946;10.558;2023-07-31T02:20:59;5.70;;;1.13;;
3189;SDS011;1606;51.946;10.558;2023-07-31T02:23:30;5.40;;;1.10;;
3189;SDS011;1606;51.946;10.558;2023-07-31T02:26:12;6.10;;;1.10;;
3189;SDS011;1606;51.946;10.558;2023-07-31T02:28:51;5.40;;;1.07;;
3189;SDS011;1606;51.946;10.558;2023-07-31T02:31:27;5.20;;;0.90;;
3189;SDS011;1606;51.946;10.558;2023-07-31T02:33:59;5.90;;;1.33;;
3189;SDS011;1606;51.946;10.558;2023-07-31T02:36:44;5.90;;;1.07;;
3189;SDS011;1606;51.946;10.558;2023-07-31T02:39:18;5.30;;;1.30;;
3189;SDS011;1606;51.946;10.558;2023-07-31T02:41:57;6.40;;;1.10;;
3189;SDS011;1606;51.946;10.558;2023-07-31T02:44:30;5.50;;;1.03;;
3189;SDS011;1606;51.946;10.558;2023-07-31T02:47:10;6.57;;;1.20;;
3189;SDS011;1606;51.946;10.558;2023-07-31T02:49:47;5.37;;;1.10;;
3189;SDS011;1606;51.946;10.558;2023-07-31T02:52:16;5.73;;;0.90;;
3189;SDS011;1606;51.946;10.558;2023-07-31T02:54:47;5.40;;;0.90;;
3189;SDS011;1606;51.946;10.558;2023-07-31T02:57:15;5.40;;;0.90;;
3189;SDS011;1606;51.946;10.558;2023-07-31T02:59:47;5.60;;;1.10;;
3189;SDS011;1606;51.946;10.558;2023-07-31T03:02:18;5.10;;;0.80;;
3189;SDS011;1606;51.946;10.558;2023-07-31T03:04:54;5.40;;;0.90;;
3189;SDS011;1606;51.946;10.558;2023-07-31T03:07:23;5.20;;;0.93;;
3189;SDS011;1606;51.946;10.558;2023-07-31T03:10:02;5.10;;;0.80;;
3189;SDS011;1606;51.946;10.558;2023-07-31T03:12:36;5.67;;;0.90;;
3189;SDS011;1606;51.946;10.558;2023-07-31T03:15:09;6.43;;;0.93;;
3189;SDS011;1606;51.946;10.558;2023-07-31T03:17:46;6.00;;;1.10;;
3189;SDS011;1606;51.946;10.558;2023-07-31T03:20:19;5.50;;;1.20;;
3189;SDS011;1606;51.946;10.558;2023-07-31T03:22:52;5.90;;;1.07;;
3189;SDS011;1606;51.946;10.558;2023-07-31T03:25:25;5.70;;;1.20;;
3189;SDS011;1606;51.946;10.558;2023-07-31T03:27:56;7.50;;;1.40;;
3189;SDS011;1606;51.946;10.558;2023-07-31T03:30:29;7.50;;;1.10;;
3189;SDS011;1606;51.946;10.558;2023-07-31T03:33:05;6.40;;;1.63;;
3189;SDS011;1606;51.946;10.558;2023-07-31T03:35:33;6.23;;;1.60;;
3189;SDS011;1606;51.946;10.558;2023-07-31T03:38:01;6.70;;;1.97;;
3189;SDS011;1606;51.946;10.558;2023-07-31T03:40:38;7.67;;;2.20;;
3189;SDS011;1606;51.946;10.558;2023-07-31T03:43:11;6.07;;;1.33;;
3189;SDS011;1606;51.946;10.558;2023-07-31T03:45:41;7.13;;;1.30;;
3189;SDS011;1606;51.946;10.558;2023-07-31T03:48:10;5.60;;;1.23;;
3189;SDS011;1606;51.946;10.558;2023-07-31T03:50:39;6.40;;;1.50;;
3189;SDS011;1606;51.946;10.558;2023-07-31T03:53:14;6.50;;;1.53;;
3189;SDS011;1606;51.946;10.558;2023-07-31T03:55:45;8.20;;;1.40;;
3189;SDS011;1606;51.946;10.558;2023-07-31T03:58:17;7.23;;;1.67;;
3189;SDS011;1606;51.946;10.558;2023-07-31T04:00:53;5.73;;;1.57;;
3189;SDS011;1606;51.946;10.558;2023-07-31T04:03:34;6.90;;;2.23;;
3189;SDS011;1606;51.946;10.558;2023-07-31T04:06:04;6.07;;;1.50;;
3189;SDS011;1606;51.946;10.558;2023-07-31T04:08:33;5.60;;;1.47;;
3189;SDS011;1606;51.946;10.558;2023-07-31T04:11:02;6.33;;;1.20;;
3189;SDS011;1606;51.946;10.558;2023-07-31T04:13:33;13.83;;;1.73;;
3189;SDS011;1606;51.946;10.558;2023-07-31T04:16:13;6.83;;;1.70;;
3189;SDS011;1606;51.946;10.558;2023-07-31T04:18:50;6.00;;;1.20;;
3189;SDS011;1606;51.946;10.558;2023-07-31T04:21:23;6.90;;;1.50;;
3189;SDS011;1606;51.946;10.558;2023-07-31T04:23:55;5.10;;;0.90;;
3189;SDS011;1606;51.946;10.558;2023-07-31T04:26:29;7.43;;;1.20;;
3189;SDS011;1606;51.946;10.558;2023-07-31T04:29:18;5.70;;;0.90;;
3189;SDS011;1606;51.946;10.558;2023-07-31T04:31:56;5.50;;;0.90;;
3189;SDS011;1606;51.946;10.558;2023-07-31T04:34:30;5.63;;;1.03;;
3189;SDS011;1606;51.946;10.558;2023-07-31T04:37:02;7.37;;;1.27;;
3189;SDS011;1606;51.946;10.558;2023-07-31T04:39:36;5.30;;;1.10;;
3189;SDS011;1606;51.946;10.558;2023-07-31T04:42:08;5.20;;;0.87;;
3189;SDS011;1606;51.946;10.558;2023-07-31T04:44:39;7.90;;;1.40;;
3189;SDS011;1606;51.946;10.558;2023-07-31T04:47:17;6.57;;;1.38;;
3189;SDS011;1606;51.946;10.558;2023-07-31T04:49:54;6.40;;;1.10;;
3189;SDS011;1606;51.946;10.558;2023-07-31T04:52:27;5.40;;;0.97;;
3189;SDS011;1606;51.946;10.558;2023-07-31T04:54:59;5.30;;;0.97;;
3189;SDS011;1606;51.946;10.558;2023-07-31T04:57:41;7.63;;;0.80;;
3189;SDS011;1606;51.946;10.558;2023-07-31T05:00:13;6.00;;;0.93;;
3189;SDS011;1606;51.946;10.558;2023-07-31T05:02:58;6.07;;;0.90;;
3189;SDS011;1606;51.946;10.558;2023-07-31T05:05:32;5.77;;;1.30;;
3189;SDS011;1606;51.946;10.558;2023-07-31T05:08:08;5.20;;;0.80;;
3189;SDS011;1606;51.946;10.558;2023-07-31T05:10:40;6.70;;;1.70;;
3189;SDS011;1606;51.946;10.558;2023-07-31T05:13:11;6.67;;;1.83;;
3189;SDS011;1606;51.946;10.558;2023-07-31T05:15:47;7.40;;;2.50;;
3189;SDS011;1606;51.946;10.558;2023-07-31T05:18:33;8.17;;;2.07;;
3189;SDS011;1606;51.946;10.558;2023-07-31T05:21:01;9.80;;;3.60;;
3189;SDS011;1606;51.946;10.558;2023-07-31T05:23:35;10.53;;;2.90;;
3189;SDS011;1606;51.946;10.558;2023-07-31T05:26:24;8.70;;;3.20;;
3189;SDS011;1606;51.946;10.558;2023-07-31T05:28:56;8.87;;;3.10;;
3189;SDS011;1606;51.946;10.558;2023-07-31T05:31:30;10.13;;;2.90;;
3189;SDS011;1606;51.946;10.558;2023-07-31T05:34:04;7.67;;;2.90;;
3189;SDS011;1606;51.946;10.558;2023-07-31T05:36:40;8.43;;;3.33;;
3189;SDS011;1606;51.946;10.558;2023-07-31T05:39:15;9.57;;;3.63;;
3189;SDS011;1606;51.946;10.558;2023-07-31T05:41:48;17.77;;;4.30;;
3189;SDS011;1606;51.946;10.558;2023-07-31T05:44:23;11.70;;;3.27;;
3189;SDS011;1606;51.946;10.558;2023-07-31T05:46:57;10.40;;;4.67;;
3189;SDS011;1606;51.946;10.558;2023-07-31T05:49:32;9.20;;;3.50;;
3189;SDS011;1606;51.946;10.558;2023-07-31T05:52:07;9.17;;;3.93;;
3189;SDS011;1606;51.946;10.558;2023-07-31T05:54:39;11.30;;;3.63;;
3189;SDS011;1606;51.946;10.558;2023-07-31T05:57:12;8.50;;;3.77;;
3189;SDS011;1606;51.946;10.558;2023-07-31T05:59:44;8.07;;;3.53;;
3189;SDS011;1606;51.946;10.558;2023-07-31T06:02:25;10.30;;;3.50;;
3189;SDS011;1606;51.946;10.558;2023-07-31T06:05:02;10.07;;;4.10;;
3189;SDS011;1606;51.946;10.558;2023-07-31T06:07:46;10.00;;;3.67;;
3189;SDS011;1606;51.946;10.558;2023-07-31T06:10:43;9.60;;;4.13;;
3189;SDS011;1606;51.946;10.558;2023-07-31T06:13:17;11.70;;;3.80;;
3189;SDS011;1606;51.946;10.558;2023-07-31T06:15:51;10.60;;;3.03;;
3189;SDS011;1606;51.946;10.558;2023-07-31T06:18:35;10.52;;;3.28;;
3189;SDS011;1606;51.946;10.558;2023-07-31T06:21:23;8.17;;;3.17;;
3189;SDS011;1606;51.946;10.558;2023-07-31T06:24:21;10.23;;;3.00;;
3189;SDS011;1606;51.946;10.558;2023-07-31T06:27:08;8.53;;;3.80;;
3189;SDS011;1606;51.946;10.558;2023-07-31T06:29:47;11.30;;;2.80;;
3189;SDS011;1606;51.946;10.558;2023-07-31T06:32:40;7.50;;;2.57;;
3189;SDS011;1606;51.946;10.558;2023-07-31T06:35:48;7.80;;;3.10;;
3189;SDS011;1606;51.946;10.558;2023-07-31T06:38:30;10.87;;;3.57;;
3189;SDS011;1606;51.946;10.558;2023-07-31T06:41:04;8.80;;;3.63;;
3189;SDS011;1606;51.946;10.558;2023-07-31T06:43:41;15.40;;;4.27;;
3189;SDS011;1606;51.946;10.558;2023-07-31T06:46:13;15.33;;;4.23;;
3189;SDS011;1606;51.946;10.558;2023-07-31T06:48:44;12.57;;;4.17;;
3189;SDS011;1606;51.946;10.558;2023-07-31T06:51:26;14.40;;;4.70;;
3189;SDS011;1606;51.946;10.558;2023-07-31T06:54:06;11.50;;;4.80;;
3189;SDS011;1606;51.946;10.558;2023-07-31T06:56:54;10.90;;;4.50;;
3189;SDS011;1606;51.946;10.558;2023-07-31T06:59:26;13.73;;;5.20;;
3189;SDS011;1606;51.946;10.558;2023-07-31T07:01:59;15.07;;;5.67;;
3189;SDS011;1606;51.946;10.558;2023-07-31T07:04:34;15.13;;;5.17;;
3189;SDS011;1606;51.946;10.558;2023-07-31T07:07:07;9.57;;;4.53;;
3189;SDS011;1606;51.946;10.558;2023-07-31T07:09:37;14.07;;;5.10;;
3189;SDS011;1606;51.946;10.558;2023-07-31T07:12:16;12.50;;;5.23;;
3189;SDS011;1606;51.946;10.558;2023-07-31T07:15:11;10.70;;;5.17;;
3189;SDS011;1606;51.946;10.558;2023-07-31T07:18:21;15.73;;;5.67;;
3189;SDS011;1606;51.946;10.558;2023-07-31T07:21:37;10.50;;;4.70;;
3189;SDS011;1606;51.946;10.558;2023-07-31T07:24:26;13.50;;;4.97;;
3189;SDS011;1606;51.946;10.558;2023-07-31T07:26:58;11.77;;;4.20;;
3189;SDS011;1606;51.946;10.558;2023-07-31T07:29:31;11.87;;;3.90;;
3189;SDS011;1606;51.946;10.558;2023-07-31T07:32:03;11.87;;;4.80;;
3189;SDS011;1606;51.946;10.558;2023-07-31T07:34:42;11.90;;;4.50;;
3189;SDS011;1606;51.946;10.558;2023-07-31T07:37:11;13.43;;;4.00;;
3189;SDS011;1606;51.946;10.558;2023-07-31T07:39:51;9.97;;;4.10;;
3189;SDS011;1606;51.946;10.558;2023-07-31T07:45:23;12.07;;;4.33;;
3189;SDS011;1606;51.946;10.558;2023-07-31T07:48:08;10.43;;;4.43;;
3189;SDS011;1606;51.946;10.558;2023-07-31T07:50:40;10.63;;;4.37;;
3189;SDS011;1606;51.946;10.558;2023-07-31T07:53:11;13.97;;;5.20;;
3189;SDS011;1606;51.946;10.558;2023-07-31T07:55:52;10.07;;;4.13;;
3189;SDS011;1606;51.946;10.558;2023-07-31T07:58:29;12.47;;;4.60;;
3189;SDS011;1606;51.946;10.558;2023-07-31T08:00:58;13.20;;;4.20;;
3189;SDS011;1606;51.946;10.558;2023-07-31T08:03:33;10.50;;;4.53;;
3189;SDS011;1606;51.946;10.558;2023-07-31T08:06:04;11.03;;;4.10;;
3189;SDS011;1606;51.946;10.558;2023-07-31T08:08:38;11.60;;;4.07;;
3189;SDS011;1606;51.946;10.558;2023-07-31T08:11:11;9.63;;;4.00;;
3189;SDS011;1606;51.946;10.558;2023-07-31T08:13:41;9.53;;;3.97;;
3189;SDS011;1606;51.946;10.558;2023-07-31T08:16:20;10.77;;;4.37;;
3189;SDS011;1606;51.946;10.558;2023-07-31T08:18:55;11.93;;;4.07;;
3189;SDS011;1606;51.946;10.558;2023-07-31T08:21:29;8.67;;;4.00;;
3189;SDS011;1606;51.946;10.558;2023-07-31T08:24:10;10.00;;;4.20;;
3189;SDS011;1606;51.946;10.558;2023-07-31T08:26:50;10.20;;;4.70;;
3189;SDS011;1606;51.946;10.558;2023-07-31T08:29:23;9.10;;;3.70;;
3189;SDS011;1606;51.946;10.558;2023-07-31T08:31:54;10.80;;;4.67;;
3189;SDS011;1606;51.946;10.558;2023-07-31T08:34:27;9.60;;;4.00;;
3189;SDS011;1606;51.946;10.558;2023-07-31T08:37:11;11.53;;;4.10;;
3189;SDS011;1606;51.946;10.558;2023-07-31T08:39:53;9.83;;;3.47;;
3189;SDS011;1606;51.946;10.558;2023-07-31T08:42:32;10.30;;;3.50;;
3189;SDS011;1606;51.946;10.558;2023-07-31T08:45:16;13.60;;;3.63;;
3189;SDS011;1606;51.946;10.558;2023-07-31T08:47:46;10.83;;;4.20;;
3189;SDS011;1606;51.946;10.558;2023-07-31T08:50:21;11.57;;;4.37;;
3189;SDS011;1606;51.946;10.558;2023-07-31T08:53:03;9.27;;;3.70;;
3189;SDS011;1606;51.946;10.558;2023-07-31T08:55:41;12.10;;;4.20;;
3189;SDS011;1606;51.946;10.558;2023-07-31T08:58:13;7.80;;;3.17;;
3189;SDS011;1606;51.946;10.558;2023-07-31T09:00:50;8.30;;;3.53;;
3189;SDS011;1606;51.946;10.558;2023-07-31T09:03:24;10.40;;;3.97;;
3189;SDS011;1606;51.946;10.558;2023-07-31T09:06:08;9.47;;;3.50;;
3189;SDS011;1606;51.946;10.558;2023-07-31T09:08:38;7.80;;;3.20;;
3189;SDS011;1606;51.946;10.558;2023-07-31T09:11:18;10.50;;;3.13;;
3189;SDS011;1606;51.946;10.558;2023-07-31T09:13:52;8.50;;;2.83;;
3189;SDS011;1606;51.946;10.558;2023-07-31T09:16:29;10.13;;;3.27;;
3189;SDS011;1606;51.946;10.558;2023-07-31T09:19:09;7.17;;;2.90;;
3189;SDS011;1606;51.946;10.558;2023-07-31T09:21:48;10.37;;;2.30;;
3189;SDS011;1606;51.946;10.558;2023-07-31T09:24:26;8.33;;;2.73;;
3189;SDS011;1606;51.946;10.558;2023-07-31T09:27:07;8.10;;;2.80;;
3189;SDS011;1606;51.946;10.558;2023-07-31T09:29:45;7.00;;;2.60;;
3189;SDS011;1606;51.946;10.558;2023-07-31T09:32:32;7.00;;;2.00;;
3189;SDS011;1606;51.946;10.558;2023-07-31T09:35:12;6.43;;;2.07;;
3189;SDS011;1606;51.946;10.558;2023-07-31T09:37:49;6.37;;;2.03;;
3189;SDS011;1606;51.946;10.558;2023-07-31T09:40:26;7.67;;;2.13;;
3189;SDS011;1606;51.946;10.558;2023-07-31T09:42:56;7.80;;;2.67;;
3189;SDS011;1606;51.946;10.558;2023-07-31T09:45:27;8.67;;;3.00;;
3189;SDS011;1606;51.946;10.558;2023-07-31T09:48:09;7.77;;;2.70;;
3189;SDS011;1606;51.946;10.558;2023-07-31T09:50:49;7.57;;;3.23;;
3189;SDS011;1606;51.946;10.558;2023-07-31T09:53:28;9.50;;;3.37;;
3189;SDS011;1606;51.946;10.558;2023-07-31T09:55:59;6.33;;;2.53;;
3189;SDS011;1606;51.946;10.558;2023-07-31T09:58:37;8.37;;;3.43;;
3189;SDS011;1606;51.946;10.558;2023-07-31T10:01:27;7.73;;;3.10;;
3189;SDS011;1606;51.946;10.558;2023-07-31T10:03:58;7.87;;;3.13;;
3189;SDS011;1606;51.946;10.558;2023-07-31T10:06:32;7.67;;;2.73;;
3189;SDS011;1606;51.946;10.558;2023-07-31T10:09:08;7.47;;;2.97;;
3189;SDS011;1606;51.946;10.558;2023-07-31T10:11:42;7.73;;;2.70;;
3189;SDS011;1606;51.946;10.558;2023-07-31T10:14:26;9.03;;;3.00;;
3189;SDS011;1606;51.946;10.558;2023-07-31T10:17:02;8.33;;;3.23;;
3189;SDS011;1606;51.946;10.558;2023-07-31T10:19:37;10.23;;;3.60;;
3189;SDS011;1606;51.946;10.558;2023-07-31T10:22:08;10.70;;;3.28;;
3189;SDS011;1606;51.946;10.558;2023-07-31T10:24:39;8.27;;;2.63;;
3189;SDS011;1606;51.946;10.558;2023-07-31T10:27:13;8.60;;;3.03;;
3189;SDS011;1606;51.946;10.558;2023-07-31T10:29:54;8.90;;;3.37;;
3189;SDS011;1606;51.946;10.558;2023-07-31T10:32:38;8.57;;;3.47;;
3189;SDS011;1606;51.946;10.558;2023-07-31T10:35:21;7.80;;;3.20;;
3189;SDS011;1606;51.946;10.558;2023-07-31T10:37:50;8.90;;;3.30;;
3189;SDS011;1606;51.946;10.558;2023-07-31T10:40:26;9.00;;;3.00;;
3189;SDS011;1606;51.946;10.558;2023-07-31T10:42:59;7.50;;;2.87;;
3189;SDS011;1606;51.946;10.558;2023-07-31T10:45:32;10.97;;;2.90;;
3189;SDS011;1606;51.946;10.558;2023-07-31T10:48:04;9.60;;;3.30;;
3189;SDS011;1606;51.946;10.558;2023-07-31T10:50:47;12.93;;;3.17;;
3189;SDS011;1606;51.946;10.558;2023-07-31T10:53:24;8.93;;;3.53;;
3189;SDS011;1606;51.946;10.558;2023-07-31T10:56:03;11.80;;;3.00;;
3189;SDS011;1606;51.946;10.558;2023-07-31T10:58:36;7.27;;;2.80;;
3189;SDS011;1606;51.946;10.558;2023-07-31T11:01:05;8.30;;;2.97;;
3189;SDS011;1606;51.946;10.558;2023-07-31T11:03:41;9.20;;;2.70;;
3189;SDS011;1606;51.946;10.558;2023-07-31T11:06:16;7.20;;;2.80;;
3189;SDS011;1606;51.946;10.558;2023-07-31T11:08:46;12.23;;;2.77;;
3189;SDS011;1606;51.946;10.558;2023-07-31T11:11:18;7.17;;;2.73;;
3189;SDS011;1606;51.946;10.558;2023-07-31T11:13:54;7.70;;;3.10;;
3189;SDS011;1606;51.946;10.558;2023-07-31T11:16:23;7.50;;;2.40;;
3189;SDS011;1606;51.946;10.558;2023-07-31T11:18:55;13.83;;;3.40;;
3189;SDS011;1606;51.946;10.558;2023-07-31T11:21:28;6.93;;;2.80;;
3189;SDS011;1606;51.946;10.558;2023-07-31T11:24:02;6.80;;;2.90;;
3189;SDS011;1606;51.946;10.558;2023-07-31T11:26:33;7.20;;;3.33;;
3189;SDS011;1606;51.946;10.558;2023-07-31T11:29:12;8.87;;;3.77;;
3189;SDS011;1606;51.946;10.558;2023-07-31T11:31:42;8.83;;;2.80;;
3189;SDS011;1606;51.946;10.558;2023-07-31T11:34:13;8.40;;;3.43;;
3189;SDS011;1606;51.946;10.558;2023-07-31T11:37:01;6.90;;;2.80;;
3189;SDS011;1606;51.946;10.558;2023-07-31T11:40:09;7.50;;;2.67;;
3189;SDS011;1606;51.946;10.558;2023-07-31T11:42:41;7.23;;;2.57;;
3189;SDS011;1606;51.946;10.558;2023-07-31T11:45:18;7.33;;;2.93;;
3189;SDS011;1606;51.946;10.558;2023-07-31T11:47:56;7.50;;;3.23;;
3189;SDS011;1606;51.946;10.558;2023-07-31T11:50:29;9.00;;;2.80;;
3189;SDS011;1606;51.946;10.558;2023-07-31T11:53:06;7.83;;;2.93;;
3189;SDS011;1606;51.946;10.558;2023-07-31T11:55:39;9.03;;;3.10;;
3189;SDS011;1606;51.946;10.558;2023-07-31T11:58:08;9.03;;;3.37;;
3189;SDS011;1606;51.946;10.558;2023-07-31T12:00:38;7.70;;;3.10;;
3189;SDS011;1606;51.946;10.558;2023-07-31T12:03:10;9.00;;;3.27;;
3189;SDS011;1606;51.946;10.558;2023-07-31T12:05:44;8.57;;;2.93;;
3189;SDS011;1606;51.946;10.558;2023-07-31T12:08:17;9.10;;;3.03;;
3189;SDS011;1606;51.946;10.558;2023-07-31T12:10:52;7.40;;;3.60;;
3189;SDS011;1606;51.946;10.558;2023-07-31T12:13:26;7.37;;;2.80;;
3189;SDS011;1606;51.946;10.558;2023-07-31T12:15:59;7.90;;;2.90;;
3189;SDS011;1606;51.946;10.558;2023-07-31T12:18:34;8.70;;;3.23;;
3189;SDS011;1606;51.946;10.558;2023-07-31T12:21:05;8.23;;;3.20;;
3189;SDS011;1606;51.946;10.558;2023-07-31T12:23:43;9.17;;;3.20;;
3189;SDS011;1606;51.946;10.558;2023-07-31T12:26:15;9.03;;;3.53;;
3189;SDS011;1606;51.946;10.558;2023-07-31T12:28:47;9.37;;;3.40;;
3189;SDS011;1606;51.946;10.558;2023-07-31T12:31:27;8.80;;;2.90;;
3189;SDS011;1606;51.946;10.558;2023-07-31T12:34:00;8.60;;;3.30;;
3189;SDS011;1606;51.946;10.558;2023-07-31T12:36:32;16.93;;;3.87;;
3189;SDS011;1606;51.946;10.558;2023-07-31T12:39:05;12.13;;;3.23;;
3189;SDS011;1606;51.946;10.558;2023-07-31T12:41:34;9.93;;;3.50;;
3189;SDS011;1606;51.946;10.558;2023-07-31T12:44:05;8.33;;;2.80;;
3189;SDS011;1606;51.946;10.558;2023-07-31T12:46:35;8.40;;;3.33;;
3189;SDS011;1606;51.946;10.558;2023-07-31T12:49:04;7.07;;;3.00;;
3189;SDS011;1606;51.946;10.558;2023-07-31T12:51:44;7.43;;;3.07;;
3189;SDS011;1606;51.946;10.558;2023-07-31T12:54:19;9.10;;;3.40;;
3189;SDS011;1606;51.946;10.558;2023-07-31T12:56:51;7.40;;;2.60;;
3189;SDS011;1606;51.946;10.558;2023-07-31T12:59:27;10.10;;;2.97;;
3189;SDS011;1606;51.946;10.558;2023-07-31T13:02:02;6.93;;;2.80;;
3189;SDS011;1606;51.946;10.558;2023-07-31T13:04:35;7.60;;;3.10;;
3189;SDS011;1606;51.946;10.558;2023-07-31T13:07:04;9.80;;;2.80;;
3189;SDS011;1606;51.946;10.558;2023-07-31T13:09:38;7.10;;;2.37;;
3189;SDS011;1606;51.946;10.558;2023-07-31T13:12:08;7.00;;;2.63;;
3189;SDS011;1606;51.946;10.558;2023-07-31T13:14:37;5.73;;;1.80;;
3189;SDS011;1606;51.946;10.558;2023-07-31T13:17:07;7.00;;;2.10;;
3189;SDS011;1606;51.946;10.558;2023-07-31T13:19:40;7.77;;;2.73;;
3189;SDS011;1606;51.946;10.558;2023-07-31T13:22:11;7.10;;;2.67;;
3189;SDS011;1606;51.946;10.558;2023-07-31T13:24:46;7.03;;;2.00;;
3189;SDS011;1606;51.946;10.558;2023-07-31T13:27:15;8.00;;;2.70;;
3189;SDS011;1606;51.946;10.558;2023-07-31T13:29:53;6.53;;;1.67;;
3189;SDS011;1606;51.946;10.558;2023-07-31T13:32:27;6.30;;;1.93;;
3189;SDS011;1606;51.946;10.558;2023-07-31T13:34:56;5.90;;;1.70;;
3189;SDS011;1606;51.946;10.558;2023-07-31T13:37:36;5.83;;;1.70;;
3189;SDS011;1606;51.946;10.558;2023-07-31T13:40:13;6.57;;;1.50;;
3189;SDS011;1606;51.946;10.558;2023-07-31T13:42:44;5.97;;;1.40;;
3189;SDS011;1606;51.946;10.558;2023-07-31T13:45:17;7.23;;;1.27;;
3189;SDS011;1606;51.946;10.558;2023-07-31T13:47:49;7.10;;;1.80;;
3189;SDS011;1606;51.946;10.558;2023-07-31T13:50:23;6.23;;;1.60;;
3189;SDS011;1606;51.946;10.558;2023-07-31T13:52:52;5.97;;;1.63;;
3189;SDS011;1606;51.946;10.558;2023-07-31T13:55:35;6.27;;;1.40;;
3189;SDS011;1606;51.946;10.558;2023-07-31T13:58:21;5.60;;;1.43;;
3189;SDS011;1606;51.946;10.558;2023-07-31T14:01:22;5.70;;;1.33;;
3189;SDS011;1606;51.946;10.558;2023-07-31T14:03:54;6.03;;;1.77;;
3189;SDS011;1606;51.946;10.558;2023-07-31T14:06:27;5.43;;;1.40;;
3189;SDS011;1606;51.946;10.558;2023-07-31T14:08:58;8.43;;;1.83;;
3189;SDS011;1606;51.946;10.558;2023-07-31T14:11:30;5.60;;;1.60;;
3189;SDS011;1606;51.946;10.558;2023-07-31T14:14:11;5.40;;;1.37;;
3189;SDS011;1606;51.946;10.558;2023-07-31T14:16:45;8.33;;;1.60;;
3189;SDS011;1606;51.946;10.558;2023-07-31T14:19:21;6.30;;;1.40;;
3189;SDS011;1606;51.946;10.558;2023-07-31T14:21:59;5.40;;;1.47;;
3189;SDS011;1606;51.946;10.558;2023-07-31T14:24:37;5.27;;;1.10;;
3189;SDS011;1606;51.946;10.558;2023-07-31T14:27:07;6.53;;;1.50;;
3189;SDS011;1606;51.946;10.558;2023-07-31T14:29:41;5.23;;;1.50;;
3189;SDS011;1606;51.946;10.558;2023-07-31T14:32:13;8.43;;;1.90;;
3189;SDS011;1606;51.946;10.558;2023-07-31T14:34:42;6.83;;;1.87;;
3189;SDS011;1606;51.946;10.558;2023-07-31T14:37:20;6.40;;;1.93;;
3189;SDS011;1606;51.946;10.558;2023-07-31T14:39:49;16.70;;;2.47;;
3189;SDS011;1606;51.946;10.558;2023-07-31T14:42:22;7.73;;;2.20;;
3189;SDS011;1606;51.946;10.558;2023-07-31T14:44:56;10.53;;;2.20;;
3189;SDS011;1606;51.946;10.558;2023-07-31T14:47:36;6.70;;;2.37;;
3189;SDS011;1606;51.946;10.558;2023-07-31T14:50:08;8.17;;;2.60;;
3189;SDS011;1606;51.946;10.558;2023-07-31T14:52:49;11.00;;;2.83;;
3189;SDS011;1606;51.946;10.558;2023-07-31T14:55:20;8.70;;;3.23;;
3189;SDS011;1606;51.946;10.558;2023-07-31T14:58:00;7.60;;;2.70;;
3189;SDS011;1606;51.946;10.558;2023-07-31T15:00:31;6.30;;;2.23;;
3189;SDS011;1606;51.946;10.558;2023-07-31T15:03:05;7.30;;;2.70;;
3189;SDS011;1606;51.946;10.558;2023-07-31T15:05:37;7.03;;;2.90;;
3189;SDS011;1606;51.946;10.558;2023-07-31T15:08:14;6.90;;;2.33;;
3189;SDS011;1606;51.946;10.558;2023-07-31T15:10:46;6.73;;;2.60;;
3189;SDS011;1606;51.946;10.558;2023-07-31T15:13:26;7.43;;;2.97;;
3189;SDS011;1606;51.946;10.558;2023-07-31T15:16:01;7.33;;;2.87;;
3189;SDS011;1606;51.946;10.558;2023-07-31T15:18:32;8.40;;;2.83;;
3189;SDS011;1606;51.946;10.558;2023-07-31T15:21:07;9.13;;;3.00;;
3189;SDS011;1606;51.946;10.558;2023-07-31T15:23:41;7.43;;;2.83;;
3189;SDS011;1606;51.946;10.558;2023-07-31T15:26:15;7.40;;;2.80;;
3189;SDS011;1606;51.946;10.558;2023-07-31T15:28:50;11.40;;;2.40;;
3189;SDS011;1606;51.946;10.558;2023-07-31T15:31:33;8.17;;;3.10;;
3189;SDS011;1606;51.946;10.558;2023-07-31T15:34:08;11.33;;;3.43;;
3189;SDS011;1606;51.946;10.558;2023-07-31T15:36:47;8.43;;;3.10;;
3189;SDS011;1606;51.946;10.558;2023-07-31T15:39:24;7.13;;;2.53;;
3189;SDS011;1606;51.946;10.558;2023-07-31T15:42:01;8.30;;;2.97;;
3189;SDS011;1606;51.946;10.558;2023-07-31T15:44:37;8.50;;;3.20;;
3189;SDS011;1606;51.946;10.558;2023-07-31T15:47:08;6.90;;;3.07;;
3189;SDS011;1606;51.946;10.558;2023-07-31T15:49:40;10.60;;;3.40;;
3189;SDS011;1606;51.946;10.558;2023-07-31T15:52:14;8.83;;;3.20;;
3189;SDS011;1606;51.946;10.558;2023-07-31T15:54:54;8.97;;;2.83;;
3189;SDS011;1606;51.946;10.558;2023-07-31T15:57:23;7.97;;;3.50;;